AirNav   SIMCOM
 
 307 users online  

C00 Mercer County Airport
Aledo, Illinois, USA

GOING TO ALEDO?


FAA INFORMATION EFFECTIVE 09 NOVEMBER 2017

Location

FAA Identifier: C00
Lat/Long: 41-14-55.1220N / 090-44-13.5010W
41-14.918700N / 090-44.225017W
41.2486450 / -90.7370836
(estimated)
Elevation: 740 ft. / 225.6 m (surveyed)
Variation: 02E (1985)
From city: 3 miles NE of ALEDO, IL
Time zone: UTC -6 (UTC -5 during Daylight Saving Time)
Zip code: 61231

Airport Operations

Airport use: Open to the public
Activation date: 07/1957
Control tower: no
ARTCC: CHICAGO CENTER
FSS: KANKAKEE FLIGHT SERVICE STATION
NOTAMs facility: IKK (NOTAM-D service available)
Attendance: 0800-1700
Pattern altitude: 1540 ft. MSL
Wind indicator: yes
Segmented circle: no
Lights: SS-SR

Airport Communications

CTAF: 122.9
WX ASOS at MLI (16 nm NE): PHONE 309-799-7096
WX AWOS-3 at MUT (20 nm W): 119.775 (563-263-0902)

Nearby radio navigation aids

VOR radial/distance  VOR name  Freq  Var
MZVr221/6.2MOLINE VORTAC114.4005E
GBGr321/23.2GALESBURG VOR/DME109.8003E
CVAr198/29.9DAVENPORT VORTAC113.8004E
BRLr010/32.7BURLINGTON VOR/DME111.4005E

 
NDB name  Hdg/Dist  Freq  Var  ID
MOUNT PLEASANT063/39.521200WMPZ -- .--. --..

Airport Services

Fuel available: A
Parking: hangars and tiedowns
Bottled oxygen: NONE
Bulk oxygen: NONE

Runway Information

Runway 17/35

Dimensions: 2480 x 45 ft. / 756 x 14 m
Surface: asphalt, in good condition
Runway edge lights: low intensity
Gradient: N
RUNWAY 17  RUNWAY 35
Latitude: 41-15.125667N41-14.718667N
Longitude: 090-44.255833W090-44.208333W
Elevation: 742.0 ft.719.0 ft.
Gradient: 0.8%0.9% UP
Traffic pattern: leftleft
Markings: basic, in good conditionbasic, in good condition
Runway end identifier lights: nono
Obstructions: 35 ft. tree, 363 ft. from runway, 58 ft. right of centerline, 4:1 slope to clear
29 FT TREE 100 FT FROM EOR 17 AT 98 FT R.
none
FARM DRIVEWAY +15 ABOVE RWY 70 FT FROM EOR 35 AT 110 FT L

Airport Ownership and Management from official FAA records

Ownership: Publicly-owned
Owner: GARRETT LINDELL
1276 HWY 94
ALEDO, IL 61231
Phone (309) 582-5445
GARRETT LINDELL OF ABL, LLC
Manager: GARRETT LINDELL
1276 HWY 94
ALEDO, IL 61231
Phone (309) 582-5445

Airport Operational Statistics

Aircraft based on the field: 7
Single engine airplanes: 7
    
Aircraft operations: avg 77/week *
82% local general aviation
18% transient general aviation
* for 12-month period ending 30 June 2017

Instrument Procedures

There are no published instrument procedures at C00.

Some nearby airports with instrument procedures:

KMLI - Quad City International Airport (16 nm NE)
C66 - Monmouth Municipal Airport (20 nm S)
KMUT - Muscatine Municipal Airport (20 nm W)
KDVN - Davenport Municipal Airport (23 nm N)
KGBG - Galesburg Municipal Airport (23 nm SE)
 
Loc | Ops | Rwys | IFR | FBO | Links
Com | Nav | Svcs | Stats | Notes


 
Area around C00 (Mercer County Airport)
 
Road maps at: MapQuest Bing Google
 
Aerial photo
No photo
 
Sectional chart

 
Airport distance calculator
Flying to Mercer County Airport? Find the distance to fly.

From to C00

Sunrise and sunset
Times for 20-Nov-2017
 Local
(UTC-6)
 Zulu
(UTC)
Morning civil twilight06:2812:28
Sunrise06:5812:58
Sunset16:3922:39
Evening civil twilight17:0923:09

Current date and time
Zulu (UTC)  20-Nov-2017 10:46:46
Local (UTC-6)  20-Nov-2017 04:46:46
 
METAR
KMLI 
16nm NE 
200952Z AUTO 20004KT 10SM CLR 01/M04 A2995 RMK AO2 SLP146 T00111044
KMUT 
20nm W 
201035Z AUTO 14005KT 10SM CLR 01/M02 A2993 RMK AO2
KDVN 
23nm N 
200952Z AUTO 19008KT 10SM CLR 01/M04 A2995 RMK AO2 SLP146 T00061039
KGBG 
23nm SE 
201035Z AUTO 19009KT 10SM CLR 00/M02 A2998 RMK AO2 T00011025
TAF
KMLI 
16nm NE 
200520Z 2006/2106 21008KT P6SM OVC250 FM201500 22015G20KT P6SM SCT250
NOTAMs
Click for the latest NOTAMs
NOTAMs are issued by the DoD/FAA and will open in a separate window not controlled by AirNav.

 

 
 

Would you like to see your business listed on this page?

 If your business provides an interesting product or service to pilots, flight crews, aircraft, or users of the Mercer County Airport, you should consider listing it here.  To start the listing process, click on the button below
 
Add a business
 

Other Pages about Mercer County Airport

Update a link
 
Copyright © AirNav, LLC. All rights reserved. Privacy Policy  Contact